sensor_id;sensor_type;location;lat;lon;timestamp;pressure;altitude;pressure_sealevel;temperature;humidity
21828;BME280;11076;47.942;11.804;2023-07-22T00:03:49;94369.50;;;14.74;100.00
21828;BME280;11076;47.942;11.804;2023-07-22T00:08:51;94370.03;;;14.71;100.00
21828;BME280;11076;47.942;11.804;2023-07-22T00:13:54;94371.50;;;14.79;100.00
21828;BME280;11076;47.942;11.804;2023-07-22T00:18:56;94377.84;;;14.89;100.00
21828;BME280;11076;47.942;11.804;2023-07-22T00:23:58;94362.81;;;14.94;100.00
21828;BME280;11076;47.942;11.804;2023-07-22T00:29:01;94367.19;;;14.61;100.00
21828;BME280;11076;47.942;11.804;2023-07-22T00:34:04;94357.09;;;14.39;100.00
21828;BME280;11076;47.942;11.804;2023-07-22T00:39:07;94339.88;;;14.23;100.00
21828;BME280;11076;47.942;11.804;2023-07-22T00:44:12;94331.66;;;14.13;100.00
21828;BME280;11076;47.942;11.804;2023-07-22T00:49:16;94342.53;;;14.06;100.00
21828;BME280;11076;47.942;11.804;2023-07-22T00:54:19;94344.22;;;13.96;100.00
21828;BME280;11076;47.942;11.804;2023-07-22T00:59:21;94344.56;;;13.70;100.00
21828;BME280;11076;47.942;11.804;2023-07-22T01:04:24;94350.63;;;13.78;100.00
21828;BME280;11076;47.942;11.804;2023-07-22T01:09:34;94341.50;;;13.79;100.00
21828;BME280;11076;47.942;11.804;2023-07-22T01:14:38;94333.94;;;13.92;100.00
21828;BME280;11076;47.942;11.804;2023-07-22T01:19:41;94336.31;;;13.89;100.00
21828;BME280;11076;47.942;11.804;2023-07-22T01:24:44;94334.69;;;13.88;100.00
21828;BME280;11076;47.942;11.804;2023-07-22T01:29:46;94330.28;;;13.82;100.00
21828;BME280;11076;47.942;11.804;2023-07-22T01:34:48;94334.66;;;13.71;100.00
21828;BME280;11076;47.942;11.804;2023-07-22T01:39:51;94336.91;;;13.50;100.00
21828;BME280;11076;47.942;11.804;2023-07-22T01:44:53;94338.09;;;13.43;100.00
21828;BME280;11076;47.942;11.804;2023-07-22T01:49:56;94339.53;;;13.33;100.00
21828;BME280;11076;47.942;11.804;2023-07-22T01:54:59;94338.81;;;13.26;100.00
21828;BME280;11076;47.942;11.804;2023-07-22T02:00:01;94337.06;;;13.20;100.00
21828;BME280;11076;47.942;11.804;2023-07-22T02:05:13;94342.22;;;13.10;100.00
21828;BME280;11076;47.942;11.804;2023-07-22T02:10:16;94338.38;;;13.06;100.00
21828;BME280;11076;47.942;11.804;2023-07-22T02:15:19;94352.25;;;13.03;100.00
21828;BME280;11076;47.942;11.804;2023-07-22T02:20:21;94354.69;;;13.16;100.00
21828;BME280;11076;47.942;11.804;2023-07-22T02:25:24;94343.38;;;13.14;100.00
21828;BME280;11076;47.942;11.804;2023-07-22T02:30:26;94350.75;;;13.07;100.00
21828;BME280;11076;47.942;11.804;2023-07-22T02:35:29;94352.53;;;13.01;100.00
21828;BME280;11076;47.942;11.804;2023-07-22T02:40:37;94357.03;;;13.01;100.00
21828;BME280;11076;47.942;11.804;2023-07-22T02:45:40;94354.38;;;13.01;100.00
21828;BME280;11076;47.942;11.804;2023-07-22T02:50:42;94355.31;;;12.94;100.00
21828;BME280;11076;47.942;11.804;2023-07-22T02:55:44;94360.66;;;12.83;100.00
21828;BME280;11076;47.942;11.804;2023-07-22T03:00:48;94369.66;;;12.88;100.00
21828;BME280;11076;47.942;11.804;2023-07-22T03:05:51;94364.97;;;13.19;100.00
21828;BME280;11076;47.942;11.804;2023-07-22T03:10:54;94370.66;;;13.46;100.00
21828;BME280;11076;47.942;11.804;2023-07-22T03:15:57;94368.66;;;13.65;100.00
21828;BME280;11076;47.942;11.804;2023-07-22T03:21:00;94371.09;;;13.96;100.00
21828;BME280;11076;47.942;11.804;2023-07-22T03:26:02;94366.38;;;14.15;100.00
21828;BME280;11076;47.942;11.804;2023-07-22T03:31:04;94372.00;;;14.30;100.00
21828;BME280;11076;47.942;11.804;2023-07-22T03:36:07;94370.88;;;14.43;100.00
21828;BME280;11076;47.942;11.804;2023-07-22T03:41:12;94369.75;;;14.56;100.00
21828;BME280;11076;47.942;11.804;2023-07-22T03:46:15;94367.16;;;14.78;100.00
21828;BME280;11076;47.942;11.804;2023-07-22T03:51:17;94370.56;;;14.90;100.00
21828;BME280;11076;47.942;11.804;2023-07-22T03:56:21;94371.00;;;14.99;100.00
21828;BME280;11076;47.942;11.804;2023-07-22T04:01:26;94379.78;;;15.11;100.00
21828;BME280;11076;47.942;11.804;2023-07-22T04:06:28;94380.25;;;15.08;100.00
21828;BME280;11076;47.942;11.804;2023-07-22T04:11:30;94375.56;;;14.98;100.00
21828;BME280;11076;47.942;11.804;2023-07-22T04:16:33;94384.34;;;15.10;100.00
21828;BME280;11076;47.942;11.804;2023-07-22T04:21:37;94386.41;;;15.42;100.00
21828;BME280;11076;47.942;11.804;2023-07-22T04:26:42;94384.34;;;15.71;100.00
21828;BME280;11076;47.942;11.804;2023-07-22T04:31:45;94386.09;;;15.78;100.00
21828;BME280;11076;47.942;11.804;2023-07-22T04:36:47;94377.03;;;15.89;100.00
21828;BME280;11076;47.942;11.804;2023-07-22T04:41:50;94387.47;;;16.07;100.00
21828;BME280;11076;47.942;11.804;2023-07-22T04:46:52;94382.31;;;16.28;100.00
21828;BME280;11076;47.942;11.804;2023-07-22T04:51:55;94384.75;;;16.57;100.00
21828;BME280;11076;47.942;11.804;2023-07-22T04:56:57;94376.25;;;17.45;100.00
21828;BME280;11076;47.942;11.804;2023-07-22T05:02:02;94378.69;;;18.04;100.00
21828;BME280;11076;47.942;11.804;2023-07-22T05:07:04;94373.66;;;17.65;100.00
21828;BME280;11076;47.942;11.804;2023-07-22T05:12:07;94378.06;;;17.29;100.00
21828;BME280;11076;47.942;11.804;2023-07-22T05:17:09;94381.50;;;17.19;100.00
21828;BME280;11076;47.942;11.804;2023-07-22T05:22:12;94384.94;;;17.52;100.00
21828;BME280;11076;47.942;11.804;2023-07-22T05:27:14;94386.56;;;19.96;99.05
21828;BME280;11076;47.942;11.804;2023-07-22T05:32:17;94380.88;;;22.03;88.07
21828;BME280;11076;47.942;11.804;2023-07-22T05:37:32;94369.41;;;22.69;86.11
21828;BME280;11076;47.942;11.804;2023-07-22T05:42:35;94369.88;;;24.16;73.81
21828;BME280;11076;47.942;11.804;2023-07-22T05:47:38;94386.59;;;22.26;79.68
21828;BME280;11076;47.942;11.804;2023-07-22T05:52:40;94389.19;;;24.84;70.83
21828;BME280;11076;47.942;11.804;2023-07-22T05:57:42;94394.59;;;23.31;68.96
21828;BME280;11076;47.942;11.804;2023-07-22T06:02:45;94402.31;;;22.34;69.58
21828;BME280;11076;47.942;11.804;2023-07-22T06:07:49;94391.81;;;21.74;73.76
21828;BME280;11076;47.942;11.804;2023-07-22T06:12:52;94387.63;;;24.27;68.81
21828;BME280;11076;47.942;11.804;2023-07-22T06:17:54;94390.72;;;23.18;70.27
21828;BME280;11076;47.942;11.804;2023-07-22T06:22:56;94405.16;;;21.12;72.55
21828;BME280;11076;47.942;11.804;2023-07-22T06:27:59;94405.50;;;21.35;70.74
21828;BME280;11076;47.942;11.804;2023-07-22T06:33:01;94404.56;;;22.27;69.80
21828;BME280;11076;47.942;11.804;2023-07-22T06:38:04;94404.88;;;21.96;71.61
21828;BME280;11076;47.942;11.804;2023-07-22T06:43:06;94394.84;;;21.73;71.26
21828;BME280;11076;47.942;11.804;2023-07-22T06:48:08;94419.94;;;21.01;73.83
21828;BME280;11076;47.942;11.804;2023-07-22T06:53:11;94416.66;;;20.99;73.20
21828;BME280;11076;47.942;11.804;2023-07-22T06:58:14;94424.97;;;20.78;72.94
21828;BME280;11076;47.942;11.804;2023-07-22T07:03:16;94430.31;;;20.89;71.28
21828;BME280;11076;47.942;11.804;2023-07-22T07:08:18;94420.84;;;20.86;70.07
21828;BME280;11076;47.942;11.804;2023-07-22T07:13:21;94421.50;;;21.07;69.85
21828;BME280;11076;47.942;11.804;2023-07-22T07:18:23;94436.94;;;21.51;68.47
21828;BME280;11076;47.942;11.804;2023-07-22T07:28:28;94430.03;;;21.30;68.22
21828;BME280;11076;47.942;11.804;2023-07-22T07:33:30;94431.63;;;21.31;68.07
21828;BME280;11076;47.942;11.804;2023-07-22T07:38:33;94441.84;;;21.49;65.07
21828;BME280;11076;47.942;11.804;2023-07-22T07:43:35;94446.56;;;20.99;61.57
21828;BME280;11076;47.942;11.804;2023-07-22T07:48:38;94452.28;;;20.97;61.29
21828;BME280;11076;47.942;11.804;2023-07-22T07:53:41;94449.56;;;20.97;59.29
21828;BME280;11076;47.942;11.804;2023-07-22T07:58:44;94458.16;;;20.65;59.04
21828;BME280;11076;47.942;11.804;2023-07-22T08:03:47;94457.75;;;21.26;59.93
21828;BME280;11076;47.942;11.804;2023-07-22T08:08:50;94450.56;;;21.46;58.75
21828;BME280;11076;47.942;11.804;2023-07-22T08:13:52;94441.03;;;22.26;59.07
21828;BME280;11076;47.942;11.804;2023-07-22T08:18:55;94442.91;;;23.12;55.37
21828;BME280;11076;47.942;11.804;2023-07-22T08:23:57;94448.28;;;22.98;52.87
21828;BME280;11076;47.942;11.804;2023-07-22T08:29:00;94446.50;;;22.50;53.09
21828;BME280;11076;47.942;11.804;2023-07-22T08:34:02;94442.03;;;23.16;52.01
21828;BME280;11076;47.942;11.804;2023-07-22T08:39:05;94437.75;;;23.76;51.17
21828;BME280;11076;47.942;11.804;2023-07-22T08:44:08;94439.78;;;23.70;50.40
21828;BME280;11076;47.942;11.804;2023-07-22T08:49:13;94450.66;;;23.56;50.68
21828;BME280;11076;47.942;11.804;2023-07-22T08:54:16;94440.31;;;23.01;50.88
21828;BME280;11076;47.942;11.804;2023-07-22T08:59:19;94442.09;;;22.30;52.73
21828;BME280;11076;47.942;11.804;2023-07-22T09:04:22;94444.47;;;22.13;52.15
21828;BME280;11076;47.942;11.804;2023-07-22T09:09:25;94441.66;;;22.18;51.79
21828;BME280;11076;47.942;11.804;2023-07-22T09:14:27;94432.19;;;22.39;51.17
21828;BME280;11076;47.942;11.804;2023-07-22T09:19:37;94440.47;;;22.29;51.49
21828;BME280;11076;47.942;11.804;2023-07-22T09:24:39;94430.25;;;22.16;52.18
21828;BME280;11076;47.942;11.804;2023-07-22T09:29:42;94431.09;;;22.40;50.65
21828;BME280;11076;47.942;11.804;2023-07-22T09:34:55;94431.97;;;22.74;51.26
21828;BME280;11076;47.942;11.804;2023-07-22T09:39:58;94432.69;;;21.93;53.64
21828;BME280;11076;47.942;11.804;2023-07-22T09:45:00;94430.44;;;22.68;51.51
21828;BME280;11076;47.942;11.804;2023-07-22T09:50:03;94423.06;;;22.87;50.79
21828;BME280;11076;47.942;11.804;2023-07-22T09:55:06;94425.06;;;22.81;49.91
21828;BME280;11076;47.942;11.804;2023-07-22T10:00:09;94425.94;;;23.34;49.65
21828;BME280;11076;47.942;11.804;2023-07-22T10:05:17;94419.94;;;23.65;49.04
21828;BME280;11076;47.942;11.804;2023-07-22T10:10:23;94416.38;;;23.17;46.05
21828;BME280;11076;47.942;11.804;2023-07-22T10:15:29;94412.03;;;23.16;47.84
21828;BME280;11076;47.942;11.804;2023-07-22T10:20:31;94410.75;;;22.52;48.88
21828;BME280;11076;47.942;11.804;2023-07-22T10:25:39;94406.03;;;22.14;49.63
21828;BME280;11076;47.942;11.804;2023-07-22T10:30:42;94403.69;;;22.08;49.98
21828;BME280;11076;47.942;11.804;2023-07-22T10:36:02;94402.75;;;22.98;48.39
21828;BME280;11076;47.942;11.804;2023-07-22T10:41:15;94399.28;;;22.93;48.07
21828;BME280;11076;47.942;11.804;2023-07-22T10:46:31;94392.53;;;23.42;46.52
21828;BME280;11076;47.942;11.804;2023-07-22T10:51:37;94387.66;;;23.39;47.36
21828;BME280;11076;47.942;11.804;2023-07-22T10:56:42;94381.59;;;23.89;46.24
21828;BME280;11076;47.942;11.804;2023-07-22T11:01:45;94372.88;;;24.28;44.44
21828;BME280;11076;47.942;11.804;2023-07-22T11:11:55;94373.47;;;24.39;43.00
21828;BME280;11076;47.942;11.804;2023-07-22T11:17:03;94373.81;;;24.10;43.25
21828;BME280;11076;47.942;11.804;2023-07-22T11:22:10;94361.25;;;24.73;42.44
21828;BME280;11076;47.942;11.804;2023-07-22T11:27:13;94355.63;;;24.69;42.47
21828;BME280;11076;47.942;11.804;2023-07-22T11:32:16;94345.06;;;24.76;43.52
21828;BME280;11076;47.942;11.804;2023-07-22T11:37:19;94352.28;;;25.17;43.63
21828;BME280;11076;47.942;11.804;2023-07-22T11:42:22;94357.19;;;25.07;43.11
21828;BME280;11076;47.942;11.804;2023-07-22T11:47:29;94338.63;;;24.45;41.47
21828;BME280;11076;47.942;11.804;2023-07-22T11:52:32;94329.44;;;24.40;41.61
21828;BME280;11076;47.942;11.804;2023-07-22T11:57:35;94331.41;;;24.26;40.85
21828;BME280;11076;47.942;11.804;2023-07-22T12:02:37;94327.16;;;25.15;40.82
21828;BME280;11076;47.942;11.804;2023-07-22T12:07:40;94323.88;;;25.58;41.85
21828;BME280;11076;47.942;11.804;2023-07-22T12:12:45;94321.28;;;24.99;42.05
21828;BME280;11076;47.942;11.804;2023-07-22T12:17:51;94322.53;;;24.93;41.77
21828;BME280;11076;47.942;11.804;2023-07-22T12:22:55;94317.06;;;25.47;41.10
21828;BME280;11076;47.942;11.804;2023-07-22T12:27:57;94307.53;;;25.76;40.88
21828;BME280;11076;47.942;11.804;2023-07-22T12:33:00;94318.66;;;25.17;41.01
21828;BME280;11076;47.942;11.804;2023-07-22T12:38:02;94309.28;;;25.72;41.52
21828;BME280;11076;47.942;11.804;2023-07-22T12:43:05;94311.88;;;25.14;41.59
21828;BME280;11076;47.942;11.804;2023-07-22T12:48:09;94315.38;;;24.84;41.07
21828;BME280;11076;47.942;11.804;2023-07-22T12:53:11;94308.41;;;24.77;41.20
21828;BME280;11076;47.942;11.804;2023-07-22T12:58:14;94299.97;;;25.73;40.16
21828;BME280;11076;47.942;11.804;2023-07-22T13:09:53;94283.69;;;26.43;37.81
21828;BME280;11076;47.942;11.804;2023-07-22T13:15:05;94269.84;;;26.74;37.71
21828;BME280;11076;47.942;11.804;2023-07-22T13:20:07;94276.31;;;26.87;38.22
21828;BME280;11076;47.942;11.804;2023-07-22T13:25:11;94277.84;;;26.18;38.09
21828;BME280;11076;47.942;11.804;2023-07-22T13:30:13;94275.22;;;25.47;40.15
21828;BME280;11076;47.942;11.804;2023-07-22T13:35:16;94276.81;;;25.48;39.70
21828;BME280;11076;47.942;11.804;2023-07-22T13:40:18;94269.63;;;26.09;39.90
21828;BME280;11076;47.942;11.804;2023-07-22T13:45:21;94273.78;;;25.98;39.68
21828;BME280;11076;47.942;11.804;2023-07-22T13:50:23;94272.56;;;26.22;38.22
21828;BME280;11076;47.942;11.804;2023-07-22T13:55:26;94274.97;;;26.14;38.97
21828;BME280;11076;47.942;11.804;2023-07-22T14:00:28;94267.88;;;26.13;38.21
21828;BME280;11076;47.942;11.804;2023-07-22T14:05:31;94269.03;;;26.73;37.87
21828;BME280;11076;47.942;11.804;2023-07-22T14:10:33;94257.69;;;27.27;36.80
21828;BME280;11076;47.942;11.804;2023-07-22T14:15:35;94269.53;;;26.84;36.47
21828;BME280;11076;47.942;11.804;2023-07-22T14:20:38;94263.38;;;26.26;36.16
21828;BME280;11076;47.942;11.804;2023-07-22T14:25:41;94250.78;;;26.34;37.68
21828;BME280;11076;47.942;11.804;2023-07-22T14:30:43;94262.38;;;26.05;38.52
21828;BME280;11076;47.942;11.804;2023-07-22T14:35:47;94254.31;;;25.99;37.58
21828;BME280;11076;47.942;11.804;2023-07-22T14:40:49;94252.63;;;25.81;38.23
21828;BME280;11076;47.942;11.804;2023-07-22T14:45:53;94265.41;;;24.92;39.14
21828;BME280;11076;47.942;11.804;2023-07-22T14:50:55;94276.88;;;25.02;39.61
21828;BME280;11076;47.942;11.804;2023-07-22T14:55:58;94270.84;;;25.37;40.19
21828;BME280;11076;47.942;11.804;2023-07-22T15:01:00;94257.72;;;26.05;39.80
21828;BME280;11076;47.942;11.804;2023-07-22T15:06:05;94247.78;;;25.78;38.93
21828;BME280;11076;47.942;11.804;2023-07-22T15:11:07;94246.09;;;26.08;38.99
21828;BME280;11076;47.942;11.804;2023-07-22T15:16:10;94254.41;;;25.77;39.77
21828;BME280;11076;47.942;11.804;2023-07-22T15:21:12;94249.22;;;26.59;39.07
21828;BME280;11076;47.942;11.804;2023-07-22T15:26:14;94244.31;;;27.08;37.68
21828;BME280;11076;47.942;11.804;2023-07-22T15:31:17;94238.56;;;26.31;38.53
21828;BME280;11076;47.942;11.804;2023-07-22T15:36:20;94245.47;;;26.03;39.00
21828;BME280;11076;47.942;11.804;2023-07-22T15:41:22;94239.06;;;26.68;37.79
21828;BME280;11076;47.942;11.804;2023-07-22T15:46:25;94235.50;;;26.42;38.65
21828;BME280;11076;47.942;11.804;2023-07-22T15:51:27;94238.16;;;25.89;38.12
21828;BME280;11076;47.942;11.804;2023-07-22T15:56:30;94230.19;;;25.62;38.28
21828;BME280;11076;47.942;11.804;2023-07-22T16:01:32;94225.84;;;25.60;37.74
21828;BME280;11076;47.942;11.804;2023-07-22T16:06:35;94242.38;;;25.95;36.74
21828;BME280;11076;47.942;11.804;2023-07-22T16:11:37;94229.53;;;26.05;35.22
21828;BME280;11076;47.942;11.804;2023-07-22T16:16:40;94239.66;;;26.04;35.97
21828;BME280;11076;47.942;11.804;2023-07-22T16:21:42;94222.22;;;25.83;37.00
21828;BME280;11076;47.942;11.804;2023-07-22T16:26:45;94234.22;;;25.55;36.07
21828;BME280;11076;47.942;11.804;2023-07-22T16:31:47;94231.19;;;25.26;36.48
21828;BME280;11076;47.942;11.804;2023-07-22T16:36:50;94234.66;;;25.17;36.80
21828;BME280;11076;47.942;11.804;2023-07-22T16:41:52;94239.66;;;24.93;36.61
21828;BME280;11076;47.942;11.804;2023-07-22T16:46:55;94232.88;;;24.81;37.28
21828;BME280;11076;47.942;11.804;2023-07-22T16:51:57;94231.88;;;24.55;37.14
21828;BME280;11076;47.942;11.804;2023-07-22T16:57:00;94238.69;;;24.44;37.99
21828;BME280;11076;47.942;11.804;2023-07-22T17:02:02;94241.53;;;24.38;37.85
21828;BME280;11076;47.942;11.804;2023-07-22T17:07:05;94233.97;;;24.35;38.91
21828;BME280;11076;47.942;11.804;2023-07-22T17:12:07;94234.69;;;24.27;38.64
21828;BME280;11076;47.942;11.804;2023-07-22T17:17:10;94228.50;;;25.03;38.10
21828;BME280;11076;47.942;11.804;2023-07-22T17:22:12;94235.97;;;25.20;37.90
21828;BME280;11076;47.942;11.804;2023-07-22T17:27:15;94239.50;;;25.20;37.96
21828;BME280;11076;47.942;11.804;2023-07-22T17:32:17;94231.19;;;25.26;38.43
21828;BME280;11076;47.942;11.804;2023-07-22T17:37:19;94232.34;;;25.02;38.91
21828;BME280;11076;47.942;11.804;2023-07-22T17:42:24;94235.97;;;24.66;39.34
21828;BME280;11076;47.942;11.804;2023-07-22T17:47:27;94229.34;;;24.45;39.53
21828;BME280;11076;47.942;11.804;2023-07-22T17:52:29;94232.31;;;24.12;40.28
21828;BME280;11076;47.942;11.804;2023-07-22T17:57:31;94232.16;;;23.67;41.26
21828;BME280;11076;47.942;11.804;2023-07-22T18:02:34;94236.59;;;23.76;41.77
21828;BME280;11076;47.942;11.804;2023-07-22T18:07:40;94236.91;;;23.75;42.29
21828;BME280;11076;47.942;11.804;2023-07-22T18:12:42;94238.03;;;23.60;42.56
21828;BME280;11076;47.942;11.804;2023-07-22T18:17:45;94227.13;;;23.46;43.08
21828;BME280;11076;47.942;11.804;2023-07-22T18:22:47;94235.19;;;23.23;43.42
21828;BME280;11076;47.942;11.804;2023-07-22T18:27:50;94233.44;;;23.00;44.10
21828;BME280;11076;47.942;11.804;2023-07-22T18:32:52;94241.94;;;22.33;45.13
21828;BME280;11076;47.942;11.804;2023-07-22T18:37:54;94241.22;;;21.41;46.65
21828;BME280;11076;47.942;11.804;2023-07-22T18:42:57;94242.41;;;20.81;48.49
21828;BME280;11076;47.942;11.804;2023-07-22T18:47:59;94250.94;;;20.30;49.81
21828;BME280;11076;47.942;11.804;2023-07-22T18:53:03;94251.50;;;19.88;51.17
21828;BME280;11076;47.942;11.804;2023-07-22T18:58:05;94254.13;;;19.43;53.13
21828;BME280;11076;47.942;11.804;2023-07-22T19:03:07;94270.22;;;19.03;54.78
21828;BME280;11076;47.942;11.804;2023-07-22T19:08:10;94268.38;;;18.78;56.04
21828;BME280;11076;47.942;11.804;2023-07-22T19:13:13;94263.78;;;18.53;56.70
21828;BME280;11076;47.942;11.804;2023-07-22T19:18:16;94273.78;;;18.32;57.99
21828;BME280;11076;47.942;11.804;2023-07-22T19:23:18;94279.19;;;18.17;58.74
21828;BME280;11076;47.942;11.804;2023-07-22T19:28:21;94284.03;;;17.99;59.72
21828;BME280;11076;47.942;11.804;2023-07-22T19:33:24;94287.47;;;17.79;60.75
21828;BME280;11076;47.942;11.804;2023-07-22T19:38:27;94295.81;;;17.67;62.04
21828;BME280;11076;47.942;11.804;2023-07-22T19:43:29;94304.44;;;17.59;62.25
21828;BME280;11076;47.942;11.804;2023-07-22T19:48:33;94306.59;;;17.57;62.56
21828;BME280;11076;47.942;11.804;2023-07-22T19:53:36;94308.53;;;17.82;62.28
21828;BME280;11076;47.942;11.804;2023-07-22T19:58:38;94312.13;;;17.98;61.77
21828;BME280;11076;47.942;11.804;2023-07-22T20:03:41;94319.75;;;18.06;60.89
21828;BME280;11076;47.942;11.804;2023-07-22T20:08:43;94320.00;;;18.05;60.57
21828;BME280;11076;47.942;11.804;2023-07-22T20:13:48;94327.19;;;17.74;61.66
21828;BME280;11076;47.942;11.804;2023-07-22T20:18:50;94325.44;;;17.42;62.93
21828;BME280;11076;47.942;11.804;2023-07-22T20:23:53;94328.34;;;17.30;63.58
21828;BME280;11076;47.942;11.804;2023-07-22T20:28:55;94327.47;;;17.19;64.63
21828;BME280;11076;47.942;11.804;2023-07-22T20:33:58;94329.59;;;17.12;65.00
21828;BME280;11076;47.942;11.804;2023-07-22T20:39:03;94328.44;;;17.03;65.74
21828;BME280;11076;47.942;11.804;2023-07-22T20:44:05;94332.84;;;17.14;66.24
21828;BME280;11076;47.942;11.804;2023-07-22T20:49:08;94327.34;;;16.99;67.19
21828;BME280;11076;47.942;11.804;2023-07-22T20:54:10;94334.81;;;16.86;68.20
21828;BME280;11076;47.942;11.804;2023-07-22T20:59:13;94337.56;;;16.92;68.77
21828;BME280;11076;47.942;11.804;2023-07-22T21:04:15;94333.22;;;16.90;69.46
21828;BME280;11076;47.942;11.804;2023-07-22T21:09:17;94335.34;;;16.83;70.50
21828;BME280;11076;47.942;11.804;2023-07-22T21:14:20;94336.84;;;16.74;70.94
21828;BME280;11076;47.942;11.804;2023-07-22T21:19:22;94338.16;;;16.66;71.52
21828;BME280;11076;47.942;11.804;2023-07-22T21:24:25;94342.75;;;16.71;71.47
21828;BME280;11076;47.942;11.804;2023-07-22T21:29:27;94341.53;;;16.52;72.06
21828;BME280;11076;47.942;11.804;2023-07-22T21:34:32;94335.69;;;16.65;72.26
21828;BME280;11076;47.942;11.804;2023-07-22T21:39:34;94336.31;;;16.72;71.87
21828;BME280;11076;47.942;11.804;2023-07-22T21:44:37;94337.97;;;16.78;71.74
21828;BME280;11076;47.942;11.804;2023-07-22T21:49:39;94340.13;;;16.76;72.07
21828;BME280;11076;47.942;11.804;2023-07-22T21:54:42;94341.66;;;16.67;72.25
21828;BME280;11076;47.942;11.804;2023-07-22T21:59:44;94341.41;;;16.68;72.74
21828;BME280;11076;47.942;11.804;2023-07-22T22:04:46;94342.97;;;16.59;72.88
21828;BME280;11076;47.942;11.804;2023-07-22T22:09:49;94344.19;;;16.46;73.54
21828;BME280;11076;47.942;11.804;2023-07-22T22:14:53;94349.44;;;16.31;73.67
21828;BME280;11076;47.942;11.804;2023-07-22T22:19:56;94352.91;;;16.26;74.65
21828;BME280;11076;47.942;11.804;2023-07-22T22:24:58;94353.81;;;16.10;74.69
21828;BME280;11076;47.942;11.804;2023-07-22T22:30:01;94356.38;;;16.22;74.94
21828;BME280;11076;47.942;11.804;2023-07-22T22:35:04;94357.50;;;16.26;75.34
21828;BME280;11076;47.942;11.804;2023-07-22T22:40:07;94352.09;;;16.26;75.36
21828;BME280;11076;47.942;11.804;2023-07-22T22:45:10;94349.56;;;16.14;75.80
21828;BME280;11076;47.942;11.804;2023-07-22T22:50:12;94348.06;;;16.01;76.25
21828;BME280;11076;47.942;11.804;2023-07-22T22:55:15;94350.66;;;15.91;76.79
21828;BME280;11076;47.942;11.804;2023-07-22T23:00:17;94351.63;;;15.80;77.61
21828;BME280;11076;47.942;11.804;2023-07-22T23:05:20;94352.75;;;15.84;78.19
21828;BME280;11076;47.942;11.804;2023-07-22T23:10:22;94339.25;;;15.84;78.67
21828;BME280;11076;47.942;11.804;2023-07-22T23:15:25;94342.06;;;15.72;78.99
21828;BME280;11076;47.942;11.804;2023-07-22T23:20:27;94341.22;;;15.71;79.12
21828;BME280;11076;47.942;11.804;2023-07-22T23:25:29;94339.94;;;15.52;79.91
21828;BME280;11076;47.942;11.804;2023-07-22T23:30:32;94333.72;;;15.29;81.13
21828;BME280;11076;47.942;11.804;2023-07-22T23:35:34;94346.13;;;15.30;81.29
21828;BME280;11076;47.942;11.804;2023-07-22T23:40:37;94342.22;;;15.21;81.60
21828;BME280;11076;47.942;11.804;2023-07-22T23:45:39;94345.53;;;15.06;82.57
21828;BME280;11076;47.942;11.804;2023-07-22T23:50:41;94347.56;;;14.99;83.58
21828;BME280;11076;47.942;11.804;2023-07-22T23:55:44;94357.66;;;15.09;84.22
